createdAt,value
2023-05-18T00:00:57.297Z,0.63
2023-05-18T00:01:57.342Z,0.64
2023-05-18T00:02:57.441Z,0.66
2023-05-18T00:03:57.467Z,0.66
2023-05-18T00:04:57.461Z,0.64
2023-05-18T00:05:57.553Z,0.65
2023-05-18T00:06:57.506Z,0.64
2023-05-18T00:07:57.550Z,0.67
2023-05-18T00:08:57.617Z,0.67
2023-05-18T00:09:57.711Z,0.68
2023-05-18T00:10:57.700Z,0.67
2023-05-18T00:11:57.742Z,0.68
2023-05-18T00:12:57.778Z,0.69
2023-05-18T00:13:57.783Z,0.68
2023-05-18T00:14:57.817Z,0.68
2023-05-18T00:15:57.904Z,0.69
2023-05-18T00:16:57.864Z,0.70
2023-05-18T00:17:57.902Z,0.70
2023-05-18T00:18:57.951Z,0.69
2023-05-18T00:19:57.940Z,0.70
2023-05-18T00:20:57.940Z,0.70
2023-05-18T00:21:57.990Z,0.71
2023-05-18T00:22:57.996Z,0.71
2023-05-18T00:23:58.002Z,0.71
2023-05-18T00:24:58.015Z,0.71
2023-05-18T00:25:58.058Z,0.72
2023-05-18T00:26:58.056Z,0.68
2023-05-18T00:27:58.085Z,0.70
2023-05-18T00:28:58.092Z,0.69
2023-05-18T00:29:58.171Z,0.67
2023-05-18T00:30:58.145Z,0.68
2023-05-18T00:31:58.259Z,0.68
2023-05-18T00:32:58.276Z,0.68
2023-05-18T00:33:58.223Z,0.69
2023-05-18T00:34:58.265Z,0.68
2023-05-18T00:35:58.281Z,0.67
2023-05-18T00:36:58.285Z,0.66
2023-05-18T00:37:58.334Z,0.67
2023-05-18T00:38:58.321Z,0.65
2023-05-18T00:39:58.337Z,0.65
2023-05-18T00:40:58.346Z,0.65
2023-05-18T00:41:58.362Z,0.65
2023-05-18T00:42:58.377Z,0.66
2023-05-18T00:43:58.388Z,0.63
2023-05-18T00:44:58.385Z,0.64
2023-05-18T00:45:58.488Z,0.65
2023-05-18T00:46:58.392Z,0.64
2023-05-18T00:47:58.446Z,0.65
2023-05-18T00:48:58.411Z,0.64
2023-05-18T00:49:58.436Z,0.66
2023-05-18T00:50:58.439Z,0.67
2023-05-18T00:51:58.429Z,0.66
2023-05-18T00:52:58.414Z,0.66
2023-05-18T00:53:58.434Z,0.65
2023-05-18T00:54:58.449Z,0.64
2023-05-18T00:55:58.452Z,0.66
2023-05-18T00:56:58.449Z,0.65
2023-05-18T00:57:58.455Z,0.65
2023-05-18T00:58:58.463Z,0.66
2023-05-18T00:59:58.468Z,0.66
2023-05-18T01:00:58.494Z,0.69
2023-05-18T01:01:58.539Z,0.66
2023-05-18T01:02:58.603Z,0.68
2023-05-18T01:03:58.495Z,0.66
2023-05-18T01:04:58.486Z,0.66
2023-05-18T01:05:58.507Z,0.69
2023-05-18T01:06:58.511Z,0.68
2023-05-18T01:07:58.489Z,0.70
2023-05-18T01:08:58.468Z,0.69
2023-05-18T01:09:58.491Z,0.69
2023-05-18T01:10:58.533Z,0.73
2023-05-18T01:11:58.509Z,0.71
2023-05-18T01:12:58.513Z,0.71
2023-05-18T01:13:58.513Z,0.73
2023-05-18T01:14:58.533Z,0.71
2023-05-18T01:15:58.532Z,0.71
2023-05-18T01:16:58.573Z,0.73
2023-05-18T01:17:58.572Z,0.71
2023-05-18T01:18:58.591Z,0.70
2023-05-18T01:19:58.553Z,0.70
2023-05-18T01:20:58.554Z,0.69
2023-05-18T01:21:58.586Z,0.72
2023-05-18T01:22:58.561Z,0.73
2023-05-18T01:23:58.556Z,0.72
2023-05-18T01:24:58.550Z,0.71
2023-05-18T01:25:58.554Z,0.76
2023-05-18T01:26:58.548Z,0.74
2023-05-18T01:27:58.545Z,0.70
2023-05-18T01:28:58.565Z,0.70
2023-05-18T01:29:58.597Z,0.69
2023-05-18T01:30:58.606Z,0.70
2023-05-18T01:31:58.572Z,0.71
2023-05-18T01:32:58.611Z,0.71
2023-05-18T01:33:58.576Z,0.70
2023-05-18T01:34:58.581Z,0.71
2023-05-18T01:35:58.596Z,0.70
2023-05-18T01:36:58.583Z,0.69
2023-05-18T01:37:58.580Z,0.69
2023-05-18T01:38:58.594Z,0.69
2023-05-18T01:39:58.596Z,0.71
2023-05-18T01:40:58.612Z,0.71
2023-05-18T01:41:58.604Z,0.70
2023-05-18T01:42:58.620Z,0.70
2023-05-18T01:43:58.636Z,0.69
2023-05-18T01:44:58.632Z,0.70
2023-05-18T01:45:58.699Z,0.71
2023-05-18T01:46:58.679Z,0.71
2023-05-18T01:47:58.753Z,0.72
2023-05-18T01:48:58.703Z,0.72
2023-05-18T01:49:58.692Z,0.72
2023-05-18T01:50:58.699Z,0.70
2023-05-18T01:51:58.690Z,0.72
2023-05-18T01:52:58.692Z,0.72
2023-05-18T01:53:58.711Z,0.72
2023-05-18T01:54:58.693Z,0.72
2023-05-18T01:55:58.694Z,0.72
2023-05-18T01:56:58.697Z,0.75
2023-05-18T01:57:58.755Z,0.74
2023-05-18T01:58:58.718Z,0.75
2023-05-18T01:59:58.745Z,0.76
2023-05-18T02:00:58.751Z,0.76
2023-05-18T02:01:58.764Z,0.78
2023-05-18T02:02:58.778Z,0.76
2023-05-18T02:03:58.789Z,0.76
2023-05-18T02:04:58.758Z,0.76
2023-05-18T02:05:58.746Z,0.78
2023-05-18T02:06:58.748Z,0.77
2023-05-18T02:07:58.740Z,0.78
2023-05-18T02:08:58.740Z,0.76
2023-05-18T02:09:58.743Z,0.75
2023-05-18T02:10:58.752Z,0.80
2023-05-18T02:11:58.780Z,0.77
2023-05-18T02:12:58.786Z,0.78
2023-05-18T02:13:58.789Z,0.76
2023-05-18T02:14:58.785Z,0.78
2023-05-18T02:15:58.835Z,0.78
2023-05-18T02:16:58.847Z,0.79
2023-05-18T02:17:58.855Z,0.81
2023-05-18T02:18:58.913Z,0.82
2023-05-18T02:19:58.876Z,0.83
2023-05-18T02:20:58.894Z,0.82
2023-05-18T02:21:58.895Z,0.82
2023-05-18T02:22:58.906Z,0.81
2023-05-18T02:23:58.920Z,0.82
2023-05-18T02:24:58.922Z,0.81
2023-05-18T02:25:58.913Z,0.81
2023-05-18T02:26:58.928Z,0.84
2023-05-18T02:27:58.950Z,0.85
2023-05-18T02:28:58.912Z,0.83
2023-05-18T02:29:58.912Z,0.84
2023-05-18T02:30:58.910Z,0.83
2023-05-18T02:31:58.926Z,0.82
2023-05-18T02:32:58.962Z,0.81
2023-05-18T02:33:58.917Z,0.81
2023-05-18T02:34:58.912Z,0.78
2023-05-18T02:35:58.933Z,0.78
2023-05-18T02:36:58.918Z,0.82
2023-05-18T02:37:58.927Z,0.81
2023-05-18T02:38:58.918Z,0.82
2023-05-18T02:39:58.922Z,0.83
2023-05-18T02:40:58.927Z,0.83
2023-05-18T02:41:58.924Z,0.83
2023-05-18T02:42:58.934Z,0.82
2023-05-18T02:43:58.921Z,0.83
2023-05-18T02:44:58.920Z,0.83
2023-05-18T02:45:58.937Z,0.83
2023-05-18T02:46:58.930Z,0.83
2023-05-18T02:47:58.961Z,0.81
2023-05-18T02:48:58.936Z,0.82
2023-05-18T02:49:58.933Z,0.83
2023-05-18T02:50:58.935Z,0.83
2023-05-18T02:51:58.924Z,0.83
2023-05-18T02:52:58.928Z,0.84
2023-05-18T02:53:58.945Z,0.83
2023-05-18T02:54:58.999Z,0.85
2023-05-18T02:55:58.971Z,0.85
2023-05-18T02:56:58.984Z,0.85
2023-05-18T02:57:58.962Z,0.84
2023-05-18T02:58:58.973Z,0.86
2023-05-18T02:59:58.972Z,0.86
2023-05-18T03:00:59.047Z,0.84
2023-05-18T03:01:59.051Z,0.84
2023-05-18T03:02:59.041Z,0.84
2023-05-18T03:03:59.002Z,0.85
2023-05-18T03:04:59.020Z,0.87
2023-05-18T03:05:59.001Z,0.86
2023-05-18T03:06:58.988Z,0.86
2023-05-18T03:07:58.990Z,0.88
2023-05-18T03:08:59.018Z,0.87
2023-05-18T03:09:59.008Z,0.94
2023-05-18T03:10:58.994Z,0.92
2023-05-18T03:11:58.987Z,0.93
2023-05-18T03:12:58.992Z,0.92
2023-05-18T03:13:58.983Z,0.91
2023-05-18T03:14:59.005Z,0.91
2023-05-18T03:15:58.975Z,0.92
2023-05-18T03:16:59.017Z,0.88
2023-05-18T03:17:59.022Z,0.89
2023-05-18T03:18:59.279Z,0.94
2023-05-18T03:19:58.998Z,0.92
2023-05-18T03:20:59.012Z,0.92
2023-05-18T03:21:58.972Z,0.91
2023-05-18T03:22:59.005Z,0.92
2023-05-18T03:23:58.987Z,0.94
2023-05-18T03:24:58.977Z,0.96
2023-05-18T03:25:58.988Z,0.95
2023-05-18T03:26:59.001Z,0.96
2023-05-18T03:27:58.976Z,0.96
2023-05-18T03:28:58.996Z,0.97
2023-05-18T03:29:58.992Z,0.98
2023-05-18T03:30:59.044Z,0.97
2023-05-18T03:31:59.024Z,0.99
2023-05-18T03:32:59.052Z,0.99
2023-05-18T03:33:59.003Z,1.00
2023-05-18T03:34:58.997Z,1.01
2023-05-18T03:35:58.991Z,0.99
2023-05-18T03:36:58.997Z,0.99
2023-05-18T03:37:59.031Z,0.99
2023-05-18T03:38:59.016Z,1.00
2023-05-18T03:39:59.009Z,0.99
2023-05-18T03:40:59.025Z,0.99
2023-05-18T03:41:59.031Z,0.98
2023-05-18T03:42:59.027Z,0.98
2023-05-18T03:43:59.039Z,0.99
2023-05-18T03:44:59.025Z,0.98
2023-05-18T03:45:59.063Z,0.99
2023-05-18T03:46:59.052Z,0.99
2023-05-18T03:47:59.077Z,0.98
2023-05-18T03:48:59.068Z,0.96
2023-05-18T03:49:59.059Z,1.01
2023-05-18T03:50:59.071Z,1.03
2023-05-18T03:51:59.076Z,1.02
2023-05-18T03:52:59.070Z,1.02
2023-05-18T03:53:59.084Z,1.01
2023-05-18T03:54:59.086Z,1.03
2023-05-18T03:55:59.063Z,1.01
2023-05-18T03:56:59.077Z,1.00
2023-05-18T03:57:59.113Z,1.00
2023-05-18T03:58:59.083Z,1.03
2023-05-18T03:59:59.100Z,1.03
2023-05-18T04:00:59.121Z,1.03
2023-05-18T04:01:59.130Z,1.04
2023-05-18T04:02:59.161Z,1.05
2023-05-18T04:03:59.113Z,1.06
2023-05-18T04:04:59.094Z,1.05
2023-05-18T04:05:59.118Z,1.07
2023-05-18T04:06:59.109Z,1.11
2023-05-18T04:07:59.116Z,1.09
2023-05-18T04:08:59.103Z,1.13
2023-05-18T04:09:59.106Z,1.13
2023-05-18T04:10:59.120Z,1.15
2023-05-18T04:11:59.139Z,1.13
2023-05-18T04:12:59.128Z,1.11
2023-05-18T04:13:59.153Z,1.12
2023-05-18T04:14:59.159Z,1.13
2023-05-18T04:15:59.200Z,1.10
2023-05-18T04:16:59.161Z,1.09
2023-05-18T04:17:59.166Z,1.12
2023-05-18T04:18:59.223Z,1.15
2023-05-18T04:19:59.162Z,1.14
2023-05-18T04:20:59.150Z,1.14
2023-05-18T04:21:59.145Z,1.13
2023-05-18T04:22:59.163Z,1.14
2023-05-18T04:23:59.162Z,1.13
2023-05-18T04:24:59.167Z,1.14
2023-05-18T04:25:59.162Z,1.12
2023-05-18T04:26:59.170Z,1.14
2023-05-18T04:27:59.172Z,1.16
2023-05-18T04:28:59.149Z,1.16
2023-05-18T04:29:59.153Z,1.16
2023-05-18T04:30:59.158Z,1.14
2023-05-18T04:31:59.175Z,1.18
2023-05-18T04:32:59.190Z,1.18
2023-05-18T04:33:59.179Z,1.17
2023-05-18T04:34:59.169Z,1.13
2023-05-18T04:35:59.172Z,1.17
2023-05-18T04:36:59.170Z,1.16
2023-05-18T04:37:59.193Z,1.16
2023-05-18T04:38:59.172Z,1.17
2023-05-18T04:39:59.157Z,1.20
2023-05-18T04:40:59.157Z,1.20
2023-05-18T04:41:59.154Z,1.22
2023-05-18T04:42:59.179Z,1.21
2023-05-18T04:43:59.169Z,1.21
2023-05-18T04:44:59.145Z,1.19
2023-05-18T04:45:59.202Z,1.18
2023-05-18T04:46:59.145Z,1.17
2023-05-18T04:47:59.195Z,1.22
2023-05-18T04:48:59.138Z,1.20
2023-05-18T04:49:59.162Z,1.20
2023-05-18T04:50:59.148Z,1.21
2023-05-18T04:51:59.146Z,1.20
2023-05-18T04:52:59.162Z,1.20
2023-05-18T04:53:59.163Z,1.20
2023-05-18T04:54:59.148Z,1.17
2023-05-18T04:55:59.157Z,1.21
2023-05-18T04:56:59.143Z,1.19
2023-05-18T04:57:59.141Z,1.21
2023-05-18T04:58:59.128Z,1.20
2023-05-18T04:59:59.126Z,1.16
2023-05-18T05:00:59.168Z,1.14
2023-05-18T05:01:59.115Z,1.13
2023-05-18T05:02:59.243Z,1.17
2023-05-18T05:03:59.821Z,1.13
2023-05-18T05:04:59.140Z,1.14
2023-05-18T05:05:59.121Z,1.11
2023-05-18T05:06:59.120Z,1.12
2023-05-18T05:07:59.109Z,1.08
2023-05-18T05:08:59.127Z,1.13
2023-05-18T05:09:59.095Z,1.10
2023-05-18T05:10:59.136Z,1.10
2023-05-18T05:11:59.128Z,1.08
2023-05-18T05:12:59.136Z,1.10
2023-05-18T05:13:59.132Z,1.09
2023-05-18T05:14:59.120Z,1.02
2023-05-18T05:15:59.167Z,1.00
2023-05-18T05:16:59.137Z,1.03
2023-05-18T05:17:59.192Z,0.99
2023-05-18T05:18:59.171Z,0.92
2023-05-18T05:19:59.145Z,0.93
2023-05-18T05:20:59.134Z,0.95
2023-05-18T05:21:59.152Z,0.92
2023-05-18T05:22:59.172Z,0.92
2023-05-18T05:23:59.150Z,0.94
2023-05-18T05:24:59.125Z,0.88
2023-05-18T05:25:59.157Z,0.89
2023-05-18T05:26:59.157Z,0.88
2023-05-18T05:27:59.162Z,0.85
2023-05-18T05:28:59.168Z,0.85
2023-05-18T05:29:59.173Z,0.85
2023-05-18T05:30:59.282Z,0.81
2023-05-18T05:31:59.266Z,0.78
2023-05-18T05:32:59.351Z,0.74
2023-05-18T05:33:59.240Z,0.72
2023-05-18T05:34:59.252Z,0.72
2023-05-18T05:35:59.307Z,0.73
2023-05-18T05:36:59.289Z,0.73
2023-05-18T05:37:59.295Z,0.75
2023-05-18T05:38:59.340Z,0.69
2023-05-18T05:39:59.434Z,0.72
2023-05-18T05:40:59.427Z,0.69
2023-05-18T05:41:59.441Z,0.69
2023-05-18T05:42:59.517Z,0.65
2023-05-18T05:43:59.516Z,0.65
2023-05-18T05:44:59.521Z,0.65
2023-05-18T05:45:59.557Z,0.67
2023-05-18T05:46:59.612Z,0.68
2023-05-18T05:47:59.671Z,0.66
2023-05-18T05:48:59.633Z,0.64
2023-05-18T05:49:59.650Z,0.64
2023-05-18T05:50:59.642Z,0.65
2023-05-18T05:51:59.661Z,0.64
2023-05-18T05:52:59.684Z,0.67
2023-05-18T05:53:59.696Z,0.62
2023-05-18T05:54:59.711Z,0.59
2023-05-18T05:55:59.733Z,0.59
2023-05-18T05:56:59.766Z,0.55
2023-05-18T05:57:59.794Z,0.57
2023-05-18T05:58:59.821Z,0.56
2023-05-18T05:59:59.868Z,0.52
2023-05-18T06:00:59.869Z,0.53
2023-05-18T06:01:59.988Z,0.52
2023-05-18T06:02:59.957Z,0.50
2023-05-18T06:03:59.975Z,0.51
2023-05-18T06:04:59.987Z,0.51
2023-05-18T06:06:00.035Z,0.51
2023-05-18T06:07:00.086Z,0.50
2023-05-18T06:08:00.110Z,0.52
2023-05-18T06:09:00.143Z,0.50
2023-05-18T06:10:00.189Z,0.50
2023-05-18T06:11:00.213Z,0.53
2023-05-18T06:12:00.254Z,0.51
2023-05-18T06:13:00.320Z,0.54
2023-05-18T06:14:00.376Z,0.53
2023-05-18T06:15:00.453Z,0.51
2023-05-18T06:16:00.495Z,0.52
2023-05-18T06:17:00.601Z,0.57
2023-05-18T06:18:00.621Z,0.58
2023-05-18T06:19:00.648Z,0.56
2023-05-18T06:20:00.698Z,0.56
2023-05-18T06:21:00.776Z,0.59
2023-05-18T06:22:00.800Z,0.58
2023-05-18T06:23:00.887Z,0.55
2023-05-18T06:24:00.939Z,0.52
2023-05-18T06:25:01.019Z,0.51
2023-05-18T06:26:01.074Z,0.51
2023-05-18T06:27:01.116Z,0.53
2023-05-18T06:28:01.159Z,0.54
2023-05-18T06:29:01.240Z,0.52
2023-05-18T06:30:01.297Z,0.55
2023-05-18T06:31:01.340Z,0.55
2023-05-18T06:32:01.475Z,0.51
2023-05-18T06:33:01.502Z,0.50
2023-05-18T06:34:01.512Z,0.50
2023-05-18T06:35:01.582Z,0.51
2023-05-18T06:36:01.622Z,0.52
2023-05-18T06:37:01.682Z,0.52
2023-05-18T06:38:01.730Z,0.50
2023-05-18T06:39:01.802Z,0.50
2023-05-18T06:40:01.839Z,0.50
2023-05-18T06:41:01.892Z,0.50
2023-05-18T06:42:02.003Z,0.52
2023-05-18T06:43:01.989Z,0.52
2023-05-18T06:44:02.046Z,0.54
2023-05-18T06:45:02.102Z,0.54
2023-05-18T06:46:02.237Z,0.54
2023-05-18T06:47:02.197Z,0.56
2023-05-18T06:48:02.311Z,0.55
2023-05-18T06:49:02.268Z,0.52
2023-05-18T06:50:02.342Z,0.54
2023-05-18T06:51:02.382Z,0.56
2023-05-18T06:52:02.413Z,0.55
2023-05-18T06:53:02.457Z,0.56
2023-05-18T06:54:02.514Z,0.56
2023-05-18T06:55:02.546Z,0.67
2023-05-18T06:56:02.585Z,0.67
2023-05-18T06:57:02.643Z,0.74
2023-05-18T06:58:02.703Z,0.78
2023-05-18T06:59:02.702Z,0.80
2023-05-18T07:00:02.750Z,0.80
2023-05-18T07:01:02.867Z,0.94
2023-05-18T07:02:02.957Z,0.95
2023-05-18T07:03:02.914Z,0.96
2023-05-18T07:04:02.973Z,1.03
2023-05-18T07:05:02.950Z,1.14
2023-05-18T07:06:03.082Z,1.17
2023-05-18T07:07:03.019Z,1.22
2023-05-18T07:08:03.116Z,1.16
2023-05-18T07:09:03.106Z,1.20
2023-05-18T07:10:03.149Z,1.26
2023-05-18T07:11:03.153Z,1.19
2023-05-18T07:12:03.183Z,1.28
2023-05-18T07:13:03.242Z,1.27
2023-05-18T07:14:03.258Z,1.25
2023-05-18T07:15:03.284Z,1.30
2023-05-18T07:16:03.417Z,1.26
2023-05-18T07:17:03.357Z,1.21
2023-05-18T07:18:03.416Z,1.19
2023-05-18T07:19:03.447Z,1.16
2023-05-18T07:20:03.468Z,1.23
2023-05-18T07:21:03.497Z,1.19
2023-05-18T07:22:03.542Z,1.20
2023-05-18T07:23:03.587Z,1.22
2023-05-18T07:24:03.619Z,1.22
2023-05-18T07:25:03.640Z,1.20
2023-05-18T07:26:03.694Z,1.14
2023-05-18T07:27:03.695Z,1.09
2023-05-18T07:28:03.742Z,1.12
2023-05-18T07:29:03.777Z,1.06
2023-05-18T07:30:03.804Z,1.08
2023-05-18T07:31:03.843Z,1.16
2023-05-18T07:32:03.872Z,1.09
2023-05-18T07:33:03.921Z,1.15
2023-05-18T07:34:03.895Z,1.17
2023-05-18T07:35:03.945Z,1.16
2023-05-18T07:36:03.959Z,1.16
2023-05-18T07:37:03.987Z,1.14
2023-05-18T07:38:04.006Z,1.14
2023-05-18T07:39:04.076Z,1.11
2023-05-18T07:40:04.065Z,1.06
2023-05-18T07:41:04.123Z,1.10
2023-05-18T07:42:04.140Z,1.04
2023-05-18T07:43:04.147Z,0.99
2023-05-18T07:44:04.186Z,0.96
2023-05-18T07:45:04.211Z,0.89
2023-05-18T07:46:04.237Z,0.96
2023-05-18T07:47:04.311Z,0.99
2023-05-18T07:48:04.333Z,0.91
2023-05-18T07:49:04.299Z,0.91
2023-05-18T07:50:04.316Z,0.88
2023-05-18T07:51:04.336Z,0.89
2023-05-18T07:52:04.363Z,0.93
2023-05-18T07:53:04.384Z,0.93
2023-05-18T07:54:04.403Z,0.97
2023-05-18T07:55:04.411Z,1.01
2023-05-18T07:56:04.444Z,0.93
2023-05-18T07:57:04.461Z,0.94
2023-05-18T07:58:04.477Z,0.94
2023-05-18T07:59:04.488Z,0.90
2023-05-18T08:00:04.529Z,0.90
2023-05-18T08:01:04.523Z,0.90
2023-05-18T08:02:04.596Z,0.89
2023-05-18T08:03:04.645Z,0.87
2023-05-18T08:04:04.657Z,0.85
2023-05-18T08:05:04.598Z,0.82
2023-05-18T08:06:04.603Z,0.87
2023-05-18T08:07:04.612Z,0.82
2023-05-18T08:08:06.809Z,0.98
2023-05-18T08:09:04.697Z,1.01
2023-05-18T08:10:04.710Z,1.00
2023-05-18T08:11:04.701Z,1.01
2023-05-18T08:12:04.725Z,1.00
2023-05-18T08:13:04.740Z,1.02
2023-05-18T08:14:04.752Z,1.02
2023-05-18T08:15:04.799Z,1.00
2023-05-18T08:17:05.832Z,0.94
2023-05-18T08:18:04.847Z,0.94
2023-05-18T08:19:04.842Z,0.94
2023-05-18T08:20:04.734Z,0.98
2023-05-18T08:21:04.738Z,1.01
2023-05-18T08:22:04.732Z,1.09
2023-05-18T08:23:04.716Z,1.08
2023-05-18T08:24:04.713Z,1.09
2023-05-18T08:25:04.709Z,1.06
2023-05-18T08:26:04.705Z,1.09
2023-05-18T08:27:04.683Z,1.12
2023-05-18T08:28:04.675Z,1.19
2023-05-18T08:29:04.692Z,1.14
2023-05-18T08:30:04.676Z,1.16
2023-05-18T08:31:04.718Z,1.24
2023-05-18T08:32:04.700Z,1.21
2023-05-18T08:33:04.672Z,1.19
2023-05-18T08:34:04.640Z,1.18
2023-05-18T08:35:04.655Z,1.19
2023-05-18T08:36:04.640Z,1.16
2023-05-18T08:37:04.603Z,1.15
2023-05-18T08:38:05.740Z,1.18
2023-05-18T08:39:04.605Z,1.19
2023-05-18T08:40:04.596Z,1.18
2023-05-18T08:41:04.596Z,1.16
2023-05-18T08:42:04.584Z,1.16
2023-05-18T08:43:04.568Z,1.23
2023-05-18T08:44:04.581Z,1.24
2023-05-18T08:45:04.582Z,1.20
2023-05-18T08:46:04.581Z,1.12
2023-05-18T08:47:04.574Z,1.16
2023-05-18T08:48:04.680Z,1.12
2023-05-18T08:49:04.684Z,1.19
2023-05-18T08:50:04.605Z,1.17
2023-05-18T08:51:04.632Z,1.18
2023-05-18T08:52:04.610Z,1.19
2023-05-18T08:53:04.636Z,1.17
2023-05-18T08:54:04.635Z,1.15
2023-05-18T08:55:04.715Z,1.15
2023-05-18T08:56:04.641Z,1.13
2023-05-18T08:57:04.666Z,1.17
2023-05-18T08:58:04.718Z,1.17
2023-05-18T08:59:04.663Z,1.18
2023-05-18T09:00:04.680Z,1.16
2023-05-18T09:01:04.772Z,1.17
2023-05-18T09:02:04.718Z,1.21
2023-05-18T09:03:04.742Z,1.17
2023-05-18T09:04:04.768Z,1.17
2023-05-18T09:05:04.752Z,1.16
2023-05-18T09:06:04.683Z,1.14
2023-05-18T09:07:04.719Z,1.15
2023-05-18T09:08:04.699Z,1.14
2023-05-18T09:09:04.694Z,1.19
2023-05-18T09:10:04.711Z,1.14
2023-05-18T09:11:04.693Z,1.10
2023-05-18T09:12:04.688Z,1.03
2023-05-18T09:13:04.699Z,1.02
2023-05-18T09:14:04.702Z,1.08
2023-05-18T09:15:04.770Z,1.05
2023-05-18T09:16:04.735Z,1.02
2023-05-18T09:17:04.710Z,1.02
2023-05-18T09:18:04.730Z,0.99
2023-05-18T09:19:04.800Z,0.99
2023-05-18T09:20:04.721Z,0.99
2023-05-18T09:21:04.740Z,1.00
2023-05-18T09:22:04.742Z,1.00
2023-05-18T09:23:04.735Z,1.00
2023-05-18T09:24:04.743Z,1.03
2023-05-18T09:25:04.748Z,1.00
2023-05-18T09:26:04.765Z,0.99
2023-05-18T09:27:04.743Z,1.01
2023-05-18T09:28:04.759Z,1.01
2023-05-18T09:29:04.778Z,0.93
2023-05-18T09:30:04.769Z,0.90
2023-05-18T09:31:04.763Z,0.85
2023-05-18T09:32:04.968Z,0.87
2023-05-18T09:33:04.810Z,0.91
2023-05-18T09:34:04.769Z,0.88
2023-05-18T09:35:04.840Z,0.89
2023-05-18T09:36:04.737Z,0.90
2023-05-18T09:37:04.742Z,0.96
2023-05-18T09:38:04.761Z,0.96
2023-05-18T09:39:04.747Z,0.98
2023-05-18T09:40:04.739Z,0.95
2023-05-18T09:41:04.745Z,0.97
2023-05-18T09:42:04.730Z,0.90
2023-05-18T09:43:04.724Z,0.91
2023-05-18T09:44:04.721Z,0.90
2023-05-18T09:45:04.731Z,0.86
2023-05-18T09:46:04.729Z,0.86
2023-05-18T09:47:04.863Z,0.86
2023-05-18T09:48:04.764Z,0.79
2023-05-18T09:49:04.749Z,0.80
2023-05-18T09:50:04.761Z,0.80
2023-05-18T09:51:04.722Z,0.79
2023-05-18T09:52:04.734Z,0.82
2023-05-18T09:53:04.733Z,0.87
2023-05-18T09:54:04.779Z,0.88
2023-05-18T09:55:04.740Z,0.84
2023-05-18T09:56:04.730Z,0.83
2023-05-18T09:57:10.810Z,0.83
2023-05-18T09:58:05.839Z,0.83
2023-05-18T09:59:04.709Z,0.84
2023-05-18T10:00:04.703Z,0.81
2023-05-18T10:01:04.770Z,0.84
2023-05-18T10:02:04.723Z,0.85
2023-05-18T10:03:04.694Z,0.76
2023-05-18T10:04:04.755Z,0.70
2023-05-18T10:05:04.743Z,0.77
2023-05-18T10:06:04.684Z,0.78
2023-05-18T10:07:04.659Z,0.79
2023-05-18T10:08:04.674Z,0.72
2023-05-18T10:09:04.649Z,0.67
2023-05-18T10:10:05.850Z,0.70
2023-05-18T10:11:04.708Z,0.65
2023-05-18T10:12:04.699Z,0.61
2023-05-18T10:13:04.695Z,0.57
2023-05-18T10:14:04.712Z,0.60
2023-05-18T10:15:04.728Z,0.58
2023-05-18T10:16:04.702Z,0.60
2023-05-18T10:17:15.243Z,0.60
2023-05-18T10:18:05.713Z,0.60
2023-05-18T10:19:04.768Z,0.60
2023-05-18T10:20:04.708Z,0.60
2023-05-18T10:21:04.681Z,0.57
2023-05-18T10:22:04.646Z,0.59
2023-05-18T10:23:04.667Z,0.61
2023-05-18T10:24:04.669Z,0.65
2023-05-18T10:25:04.673Z,0.61
2023-05-18T10:26:04.638Z,0.63
2023-05-18T10:27:04.678Z,0.63
2023-05-18T10:28:04.665Z,0.62
2023-05-18T10:29:04.616Z,0.58
2023-05-18T10:30:04.638Z,0.58
2023-05-18T10:31:04.623Z,0.59
2023-05-18T10:32:06.802Z,0.57
2023-05-18T10:33:09.011Z,0.59
2023-05-18T10:34:05.586Z,0.59
2023-05-18T10:35:04.581Z,0.59
2023-05-18T10:36:04.570Z,0.57
2023-05-18T10:37:04.539Z,0.59
2023-05-18T10:38:04.546Z,0.61
2023-05-18T10:39:04.530Z,0.58
2023-05-18T10:40:04.530Z,0.57
2023-05-18T10:41:04.511Z,0.58
2023-05-18T10:42:04.518Z,0.58
2023-05-18T10:43:04.538Z,0.57
2023-05-18T10:44:04.493Z,0.54
2023-05-18T10:45:04.489Z,0.54
2023-05-18T10:46:04.750Z,0.55
2023-05-18T10:47:04.544Z,0.54
2023-05-18T10:48:04.494Z,0.54
2023-05-18T10:49:04.470Z,0.54
2023-05-18T10:50:04.458Z,0.52
2023-05-18T10:51:04.461Z,0.56
2023-05-18T10:52:04.450Z,0.58
2023-05-18T10:53:04.429Z,0.56
2023-05-18T10:54:04.427Z,0.58
2023-05-18T10:55:04.547Z,0.53
2023-05-18T10:56:04.423Z,0.56
2023-05-18T10:57:04.416Z,0.55
2023-05-18T10:58:04.393Z,0.56
2023-05-18T10:59:04.372Z,0.55
2023-05-18T11:00:04.381Z,0.55
2023-05-18T11:01:04.385Z,0.54
2023-05-18T11:02:04.410Z,0.57
2023-05-18T11:03:04.410Z,0.56
2023-05-18T11:04:04.336Z,0.55
2023-05-18T11:05:04.349Z,0.54
2023-05-18T11:06:04.331Z,0.56
2023-05-18T11:07:04.335Z,0.55
2023-05-18T11:08:04.328Z,0.51
2023-05-18T11:09:04.315Z,0.50
2023-05-18T11:10:04.344Z,0.55
2023-05-18T11:11:04.377Z,0.56
2023-05-18T11:12:04.439Z,0.55
2023-05-18T11:13:04.461Z,0.57
2023-05-18T11:14:04.469Z,0.56
2023-05-18T11:15:04.498Z,0.55
2023-05-18T11:16:04.529Z,0.54
2023-05-18T11:17:04.562Z,0.54
2023-05-18T11:18:04.761Z,0.52
2023-05-18T11:19:04.674Z,0.54
2023-05-18T11:20:04.706Z,0.53
2023-05-18T11:21:04.717Z,0.53
2023-05-18T11:22:04.760Z,0.52
2023-05-18T11:23:04.754Z,0.51
2023-05-18T11:24:04.797Z,0.50
2023-05-18T11:25:04.799Z,0.51
2023-05-18T11:26:04.847Z,0.51
2023-05-18T11:27:04.834Z,0.53
2023-05-18T11:28:04.830Z,0.50
2023-05-18T11:29:04.870Z,0.53
2023-05-18T11:30:15.179Z,0.54
2023-05-18T11:31:05.890Z,0.54
2023-05-18T11:32:05.369Z,0.54
2023-05-18T11:33:04.977Z,0.52
2023-05-18T11:34:04.891Z,0.51
2023-05-18T11:35:04.923Z,0.50
2023-05-18T11:36:04.861Z,0.50
2023-05-18T11:37:04.854Z,0.51
2023-05-18T11:38:04.856Z,0.50
2023-05-18T11:39:04.858Z,0.50
2023-05-18T11:40:08.506Z,0.53
2023-05-18T11:41:05.837Z,0.53
2023-05-18T11:42:04.805Z,0.52
2023-05-18T11:43:04.811Z,0.54
2023-05-18T11:44:04.798Z,0.55
2023-05-18T11:45:04.787Z,0.54
2023-05-18T11:46:04.774Z,0.53
2023-05-18T11:47:04.797Z,0.54
2023-05-18T11:48:04.829Z,0.51
2023-05-18T11:49:04.812Z,0.51
2023-05-18T11:50:04.748Z,0.50
2023-05-18T11:51:04.757Z,0.50
2023-05-18T11:52:04.749Z,0.50
2023-05-18T11:53:04.751Z,0.50
2023-05-18T11:54:04.779Z,0.50
2023-05-18T11:55:04.808Z,0.51
2023-05-18T11:56:04.838Z,0.53
2023-05-18T11:57:04.866Z,0.54
2023-05-18T11:58:04.888Z,0.56
2023-05-18T11:59:04.927Z,0.57
2023-05-18T12:00:04.935Z,0.56
2023-05-18T12:01:04.937Z,0.54
2023-05-18T12:02:05.020Z,0.56
2023-05-18T12:03:05.083Z,0.57
2023-05-18T12:04:05.126Z,0.59
2023-05-18T12:05:05.027Z,0.59
2023-05-18T12:06:05.094Z,0.60
2023-05-18T12:07:05.069Z,0.60
2023-05-18T12:08:05.103Z,0.58
2023-05-18T12:09:05.120Z,0.56
2023-05-18T12:10:05.165Z,0.58
2023-05-18T12:11:05.199Z,0.60
2023-05-18T12:12:05.222Z,0.57
2023-05-18T12:13:05.266Z,0.59
2023-05-18T12:14:05.289Z,0.58
2023-05-18T12:15:05.308Z,0.60
2023-05-18T12:16:05.331Z,0.58
2023-05-18T12:17:05.597Z,0.58
2023-05-18T12:18:05.522Z,0.57
2023-05-18T12:19:05.476Z,0.61
2023-05-18T12:20:05.470Z,0.61
2023-05-18T12:21:05.490Z,0.58
2023-05-18T12:22:05.530Z,0.56
2023-05-18T12:23:05.588Z,0.55
2023-05-18T12:24:05.660Z,0.55
2023-05-18T12:25:05.660Z,0.55
2023-05-18T12:26:05.691Z,0.55
2023-05-18T12:27:07.561Z,0.54
2023-05-18T12:28:05.746Z,0.54
2023-05-18T12:29:05.775Z,0.53
2023-05-18T12:30:05.785Z,0.54
2023-05-18T12:31:05.805Z,0.53
2023-05-18T12:32:05.824Z,0.52
2023-05-18T12:33:05.907Z,0.54
2023-05-18T12:34:05.845Z,0.55
2023-05-18T12:35:05.873Z,0.56
2023-05-18T12:36:05.874Z,0.62
2023-05-18T12:37:05.899Z,0.61
2023-05-18T12:38:05.931Z,0.56
2023-05-18T12:39:05.957Z,0.53
2023-05-18T12:40:05.954Z,0.57
2023-05-18T12:41:06.007Z,0.57
2023-05-18T12:42:06.000Z,0.58
2023-05-18T12:43:06.029Z,0.59
2023-05-18T12:44:06.051Z,0.60
2023-05-18T12:45:06.997Z,0.60
2023-05-18T12:46:06.198Z,0.61
2023-05-18T12:47:06.184Z,0.61
2023-05-18T12:48:06.303Z,0.61
2023-05-18T12:49:06.276Z,0.60
2023-05-18T12:50:06.292Z,0.61
2023-05-18T12:51:06.339Z,0.62
2023-05-18T12:52:06.356Z,0.64
2023-05-18T12:53:06.399Z,0.65
2023-05-18T12:54:06.554Z,0.68
2023-05-18T12:55:06.440Z,0.68
2023-05-18T12:56:06.485Z,0.66
2023-05-18T12:57:06.511Z,0.68
2023-05-18T12:58:06.561Z,0.67
2023-05-18T12:59:06.570Z,0.67
2023-05-18T13:00:06.616Z,0.71
2023-05-18T13:01:06.661Z,0.70
2023-05-18T13:02:06.675Z,0.67
2023-05-18T13:03:06.775Z,0.69
2023-05-18T13:04:06.758Z,0.67
2023-05-18T13:05:06.686Z,0.68
2023-05-18T13:06:06.723Z,0.68
2023-05-18T13:07:06.726Z,0.69
2023-05-18T13:08:06.769Z,0.69
2023-05-18T13:09:06.804Z,0.65
2023-05-18T13:10:06.836Z,0.68
2023-05-18T13:11:13.422Z,0.64
2023-05-18T13:12:08.243Z,0.65
2023-05-18T13:13:06.861Z,0.65
2023-05-18T13:14:06.857Z,0.62
2023-05-18T13:15:06.846Z,0.65
2023-05-18T13:16:06.920Z,0.64
2023-05-18T13:17:07.005Z,0.64
2023-05-18T13:18:06.933Z,0.63
2023-05-18T13:19:06.856Z,0.63
2023-05-18T13:20:06.832Z,0.63